sensor_id;sensor_type;location;lat;lon;timestamp;pressure;altitude;pressure_sealevel;temperature
28803;BMP280;15949;55.656;37.422;2024-01-30T00:03:47;100538.97;;;-2.17
28803;BMP280;15949;55.656;37.422;2024-01-30T00:08:53;100553.84;;;-2.14
28803;BMP280;15949;55.656;37.422;2024-01-30T00:13:59;100545.34;;;-2.08
28803;BMP280;15949;55.656;37.422;2024-01-30T00:19:04;100530.56;;;-2.06
28803;BMP280;15949;55.656;37.422;2024-01-30T00:24:10;100524.13;;;-2.09
28803;BMP280;15949;55.656;37.422;2024-01-30T00:29:15;100524.13;;;-2.09
28803;BMP280;15949;55.656;37.422;2024-01-30T00:34:24;100539.47;;;-2.09
28803;BMP280;15949;55.656;37.422;2024-01-30T00:39:30;100530.03;;;-2.08
28803;BMP280;15949;55.656;37.422;2024-01-30T00:44:36;100519.03;;;-2.09
28803;BMP280;15949;55.656;37.422;2024-01-30T00:49:43;100530.81;;;-2.08
28803;BMP280;15949;55.656;37.422;2024-01-30T00:54:49;100518.59;;;-2.06
28803;BMP280;15949;55.656;37.422;2024-01-30T00:59:55;100522.13;;;-2.07
28803;BMP280;15949;55.656;37.422;2024-01-30T01:05:00;100526.09;;;-2.11
28803;BMP280;15949;55.656;37.422;2024-01-30T01:10:06;100518.59;;;-2.06
28803;BMP280;15949;55.656;37.422;2024-01-30T01:15:12;100516.19;;;-2.01
28803;BMP280;15949;55.656;37.422;2024-01-30T01:20:17;100516.19;;;-2.01
28803;BMP280;15949;55.656;37.422;2024-01-30T01:25:23;100519.88;;;-1.97
28803;BMP280;15949;55.656;37.422;2024-01-30T01:30:29;100509.44;;;-1.95
28803;BMP280;15949;55.656;37.422;2024-01-30T01:35:35;100511.34;;;-1.91
28803;BMP280;15949;55.656;37.422;2024-01-30T01:40:41;100497.22;;;-1.93
28803;BMP280;15949;55.656;37.422;2024-01-30T01:45:47;100498.38;;;-1.89
28803;BMP280;15949;55.656;37.422;2024-01-30T01:50:52;100492.06;;;-1.87
28803;BMP280;15949;55.656;37.422;2024-01-30T01:55:58;100499.06;;;-1.82
28803;BMP280;15949;55.656;37.422;2024-01-30T02:01:04;100490.50;;;-1.88
28803;BMP280;15949;55.656;37.422;2024-01-30T02:06:10;100484.97;;;-1.85
28803;BMP280;15949;55.656;37.422;2024-01-30T02:11:16;100490.97;;;-1.79
28803;BMP280;15949;55.656;37.422;2024-01-30T02:16:22;100483.66;;;-1.75
28803;BMP280;15949;55.656;37.422;2024-01-30T02:21:27;100484.44;;;-1.75
28803;BMP280;15949;55.656;37.422;2024-01-30T02:26:33;100485.06;;;-1.80
28803;BMP280;15949;55.656;37.422;2024-01-30T02:31:39;100489.53;;;-1.75
28803;BMP280;15949;55.656;37.422;2024-01-30T02:36:45;100485.00;;;-1.73
28803;BMP280;15949;55.656;37.422;2024-01-30T02:41:51;100481.22;;;-1.70
28803;BMP280;15949;55.656;37.422;2024-01-30T02:46:56;100487.56;;;-1.73
28803;BMP280;15949;55.656;37.422;2024-01-30T02:52:02;100481.38;;;-1.65
28803;BMP280;15949;55.656;37.422;2024-01-30T02:57:08;100491.59;;;-1.65
28803;BMP280;15949;55.656;37.422;2024-01-30T03:02:14;100474.69;;;-1.66
28803;BMP280;15949;55.656;37.422;2024-01-30T03:07:19;100485.03;;;-1.61
28803;BMP280;15949;55.656;37.422;2024-01-30T03:12:25;100497.19;;;-1.57
28803;BMP280;15949;55.656;37.422;2024-01-30T03:17:30;100501.28;;;-1.56
28803;BMP280;15949;55.656;37.422;2024-01-30T03:22:36;100490.63;;;-1.53
28803;BMP280;15949;55.656;37.422;2024-01-30T03:27:42;100509.31;;;-1.52
28803;BMP280;15949;55.656;37.422;2024-01-30T03:32:47;100497.44;;;-1.47
28803;BMP280;15949;55.656;37.422;2024-01-30T03:37:53;100503.25;;;-1.40
28803;BMP280;15949;55.656;37.422;2024-01-30T03:42:59;100482.03;;;-1.40
28803;BMP280;15949;55.656;37.422;2024-01-30T03:48:05;100479.22;;;-1.39
28803;BMP280;15949;55.656;37.422;2024-01-30T03:53:10;100506.69;;;-1.34
28803;BMP280;15949;55.656;37.422;2024-01-30T03:58:16;100502.69;;;-1.30
28803;BMP280;15949;55.656;37.422;2024-01-30T04:03:22;100506.94;;;-1.24
28803;BMP280;15949;55.656;37.422;2024-01-30T04:08:27;100509.63;;;-1.19
28803;BMP280;15949;55.656;37.422;2024-01-30T04:13:33;100505.63;;;-1.15
28803;BMP280;15949;55.656;37.422;2024-01-30T04:18:39;100513.31;;;-1.15
28803;BMP280;15949;55.656;37.422;2024-01-30T04:23:44;100513.50;;;-1.16
28803;BMP280;15949;55.656;37.422;2024-01-30T04:28:51;100506.41;;;-1.14
28803;BMP280;15949;55.656;37.422;2024-01-30T04:33:56;100517.56;;;-1.09
28803;BMP280;15949;55.656;37.422;2024-01-30T04:39:02;100509.44;;;-1.06
28803;BMP280;15949;55.656;37.422;2024-01-30T04:44:09;100502.75;;;-1.07
28803;BMP280;15949;55.656;37.422;2024-01-30T04:49:14;100508.44;;;-1.05
28803;BMP280;15949;55.656;37.422;2024-01-30T04:54:20;100510.34;;;-1.00
28803;BMP280;15949;55.656;37.422;2024-01-30T04:59:25;100505.56;;;-0.97
28803;BMP280;15949;55.656;37.422;2024-01-30T05:04:31;100506.13;;;-0.95
28803;BMP280;15949;55.656;37.422;2024-01-30T05:09:37;100500.56;;;-0.92
28803;BMP280;15949;55.656;37.422;2024-01-30T05:14:42;100512.00;;;-0.94
28803;BMP280;15949;55.656;37.422;2024-01-30T05:19:48;100504.09;;;-0.93
28803;BMP280;15949;55.656;37.422;2024-01-30T05:24:53;100512.34;;;-0.91
28803;BMP280;15949;55.656;37.422;2024-01-30T05:29:59;100510.44;;;-0.83
28803;BMP280;15949;55.656;37.422;2024-01-30T05:35:05;100511.47;;;-0.84
28803;BMP280;15949;55.656;37.422;2024-01-30T05:40:11;100511.53;;;-0.79
28803;BMP280;15949;55.656;37.422;2024-01-30T05:45:16;100506.75;;;-0.76
28803;BMP280;15949;55.656;37.422;2024-01-30T05:50:22;100524.34;;;-0.79
28803;BMP280;15949;55.656;37.422;2024-01-30T05:55:28;100524.34;;;-0.79
28803;BMP280;15949;55.656;37.422;2024-01-30T06:00:34;100522.56;;;-0.79
28803;BMP280;15949;55.656;37.422;2024-01-30T06:05:39;100526.44;;;-0.76
28803;BMP280;15949;55.656;37.422;2024-01-30T06:10:45;100532.59;;;-0.77
28803;BMP280;15949;55.656;37.422;2024-01-30T06:15:51;100530.16;;;-0.72
28803;BMP280;15949;55.656;37.422;2024-01-30T06:20:56;100538.72;;;-0.67
28803;BMP280;15949;55.656;37.422;2024-01-30T06:26:02;100540.72;;;-0.69
28803;BMP280;15949;55.656;37.422;2024-01-30T06:31:08;100549.41;;;-0.58
28803;BMP280;15949;55.656;37.422;2024-01-30T06:36:13;100553.09;;;-0.54
28803;BMP280;15949;55.656;37.422;2024-01-30T06:41:19;100551.00;;;-0.46
28803;BMP280;15949;55.656;37.422;2024-01-30T06:46:25;100547.59;;;-0.34
28803;BMP280;15949;55.656;37.422;2024-01-30T06:51:31;100551.38;;;-0.25
28803;BMP280;15949;55.656;37.422;2024-01-30T06:56:37;100551.06;;;-0.29
28803;BMP280;15949;55.656;37.422;2024-01-30T07:01:42;100559.31;;;-0.39
28803;BMP280;15949;55.656;37.422;2024-01-30T07:06:48;100555.06;;;-0.33
28803;BMP280;15949;55.656;37.422;2024-01-30T07:11:54;100572.44;;;-0.35
28803;BMP280;15949;55.656;37.422;2024-01-30T07:17:01;100585.47;;;-0.36
28803;BMP280;15949;55.656;37.422;2024-01-30T07:22:07;100577.56;;;-0.35
28803;BMP280;15949;55.656;37.422;2024-01-30T07:27:14;100590.81;;;-0.26
28803;BMP280;15949;55.656;37.422;2024-01-30T07:32:19;100575.06;;;-0.07
28803;BMP280;15949;55.656;37.422;2024-01-30T07:37:25;100580.19;;;-0.07
28803;BMP280;15949;55.656;37.422;2024-01-30T07:42:31;100581.31;;;-0.03
28803;BMP280;15949;55.656;37.422;2024-01-30T07:47:36;100588.00;;;-0.02
28803;BMP280;15949;55.656;37.422;2024-01-30T07:52:43;100603.69;;;0.02
28803;BMP280;15949;55.656;37.422;2024-01-30T07:57:48;100603.03;;;0.06
28803;BMP280;15949;55.656;37.422;2024-01-30T08:02:54;100608.00;;;0.25
28803;BMP280;15949;55.656;37.422;2024-01-30T08:08:00;100606.47;;;0.52
28803;BMP280;15949;55.656;37.422;2024-01-30T08:13:06;100601.47;;;0.45
28803;BMP280;15949;55.656;37.422;2024-01-30T08:18:13;100598.47;;;0.48
28803;BMP280;15949;55.656;37.422;2024-01-30T08:23:19;100600.47;;;0.46
28803;BMP280;15949;55.656;37.422;2024-01-30T08:28:24;100593.72;;;0.29
28803;BMP280;15949;55.656;37.422;2024-01-30T08:33:30;100595.38;;;0.35
28803;BMP280;15949;55.656;37.422;2024-01-30T08:38:36;100580.69;;;0.30
28803;BMP280;15949;55.656;37.422;2024-01-30T08:43:41;100597.75;;;0.25
28803;BMP280;15949;55.656;37.422;2024-01-30T08:48:47;100587.47;;;0.25
28803;BMP280;15949;55.656;37.422;2024-01-30T08:53:53;100579.00;;;0.36
28803;BMP280;15949;55.656;37.422;2024-01-30T08:58:59;100577.97;;;0.48
28803;BMP280;15949;55.656;37.422;2024-01-30T09:04:05;100588.47;;;0.35
28803;BMP280;15949;55.656;37.422;2024-01-30T09:09:11;100594.16;;;0.37
28803;BMP280;15949;55.656;37.422;2024-01-30T09:14:16;100597.38;;;0.33
28803;BMP280;15949;55.656;37.422;2024-01-30T09:19:22;100576.50;;;0.41
28803;BMP280;15949;55.656;37.422;2024-01-30T09:24:28;100597.50;;;0.38
28803;BMP280;15949;55.656;37.422;2024-01-30T09:29:33;100591.78;;;0.47
28803;BMP280;15949;55.656;37.422;2024-01-30T09:34:41;100587.66;;;0.46
28803;BMP280;15949;55.656;37.422;2024-01-30T09:39:47;100583.56;;;0.62
28803;BMP280;15949;55.656;37.422;2024-01-30T09:44:53;100583.78;;;0.61
28803;BMP280;15949;55.656;37.422;2024-01-30T09:50:00;100576.00;;;0.55
28803;BMP280;15949;55.656;37.422;2024-01-30T09:55:07;100584.34;;;0.63
28803;BMP280;15949;55.656;37.422;2024-01-30T10:00:13;100582.31;;;0.65
28803;BMP280;15949;55.656;37.422;2024-01-30T10:05:19;100578.88;;;0.59
28803;BMP280;15949;55.656;37.422;2024-01-30T10:10:25;100582.91;;;0.55
28803;BMP280;15949;55.656;37.422;2024-01-30T10:15:31;100584.31;;;0.46
28803;BMP280;15949;55.656;37.422;2024-01-30T10:20:37;100572.84;;;0.37
28803;BMP280;15949;55.656;37.422;2024-01-30T10:25:42;100567.41;;;0.33
28803;BMP280;15949;55.656;37.422;2024-01-30T10:30:57;100569.00;;;0.51
28803;BMP280;15949;55.656;37.422;2024-01-30T10:36:04;100557.31;;;0.88
28803;BMP280;15949;55.656;37.422;2024-01-30T10:41:11;100568.13;;;0.90
28803;BMP280;15949;55.656;37.422;2024-01-30T10:46:22;100574.72;;;0.86
28803;BMP280;15949;55.656;37.422;2024-01-30T10:51:28;100563.94;;;0.84
28803;BMP280;15949;55.656;37.422;2024-01-30T10:56:35;100568.97;;;0.79
28803;BMP280;15949;55.656;37.422;2024-01-30T11:01:41;100579.06;;;0.69
28803;BMP280;15949;55.656;37.422;2024-01-30T11:06:49;100574.41;;;0.66
28803;BMP280;15949;55.656;37.422;2024-01-30T11:11:58;100570.06;;;0.67
28803;BMP280;15949;55.656;37.422;2024-01-30T11:17:09;100573.81;;;0.76
28803;BMP280;15949;55.656;37.422;2024-01-30T11:22:15;100571.38;;;0.69
28803;BMP280;15949;55.656;37.422;2024-01-30T11:27:21;100573.81;;;0.76
28803;BMP280;15949;55.656;37.422;2024-01-30T11:32:26;100574.22;;;0.56
28803;BMP280;15949;55.656;37.422;2024-01-30T11:37:37;100576.03;;;0.72
28803;BMP280;15949;55.656;37.422;2024-01-30T11:42:44;100576.41;;;0.64
28803;BMP280;15949;55.656;37.422;2024-01-30T11:47:51;100592.59;;;0.65
28803;BMP280;15949;55.656;37.422;2024-01-30T11:52:56;100584.22;;;0.69
28803;BMP280;15949;55.656;37.422;2024-01-30T11:58:02;100596.78;;;0.54
28803;BMP280;15949;55.656;37.422;2024-01-30T12:03:11;100609.59;;;0.54
28803;BMP280;15949;55.656;37.422;2024-01-30T12:08:17;100615.09;;;0.46
28803;BMP280;15949;55.656;37.422;2024-01-30T12:13:23;100617.00;;;0.39
28803;BMP280;15949;55.656;37.422;2024-01-30T12:18:29;100618.34;;;0.30
28803;BMP280;15949;55.656;37.422;2024-01-30T12:23:35;100625.47;;;0.28
28803;BMP280;15949;55.656;37.422;2024-01-30T12:28:50;100615.16;;;0.23
28803;BMP280;15949;55.656;37.422;2024-01-30T12:33:56;100623.38;;;0.25
28803;BMP280;15949;55.656;37.422;2024-01-30T12:39:02;100609.56;;;0.26
28803;BMP280;15949;55.656;37.422;2024-01-30T12:44:07;100623.16;;;0.26
28803;BMP280;15949;55.656;37.422;2024-01-30T12:49:13;100616.00;;;0.28
28803;BMP280;15949;55.656;37.422;2024-01-30T12:54:19;100622.59;;;0.36
28803;BMP280;15949;55.656;37.422;2024-01-30T12:59:25;100613.66;;;0.38
28803;BMP280;15949;55.656;37.422;2024-01-30T13:04:30;100624.13;;;0.37
28803;BMP280;15949;55.656;37.422;2024-01-30T13:09:36;100628.72;;;0.35
28803;BMP280;15949;55.656;37.422;2024-01-30T13:14:43;100635.75;;;0.39
28803;BMP280;15949;55.656;37.422;2024-01-30T13:19:48;100643.31;;;0.34
28803;BMP280;15949;55.656;37.422;2024-01-30T13:24:54;100647.22;;;0.37
28803;BMP280;15949;55.656;37.422;2024-01-30T13:30:00;100638.19;;;0.34
28803;BMP280;15949;55.656;37.422;2024-01-30T13:35:05;100638.41;;;0.33
28803;BMP280;15949;55.656;37.422;2024-01-30T13:40:11;100648.13;;;0.31
28803;BMP280;15949;55.656;37.422;2024-01-30T13:45:19;100643.09;;;0.24
28803;BMP280;15949;55.656;37.422;2024-01-30T13:50:25;100630.53;;;0.23
28803;BMP280;15949;55.656;37.422;2024-01-30T13:55:30;100634.56;;;0.19
28803;BMP280;15949;55.656;37.422;2024-01-30T14:00:36;100637.91;;;0.07
28803;BMP280;15949;55.656;37.422;2024-01-30T14:05:41;100632.56;;;0.09
28803;BMP280;15949;55.656;37.422;2024-01-30T14:10:47;100646.94;;;0.10
28803;BMP280;15949;55.656;37.422;2024-01-30T14:15:53;100653.28;;;0.07
28803;BMP280;15949;55.656;37.422;2024-01-30T14:20:58;100659.41;;;0.06
28803;BMP280;15949;55.656;37.422;2024-01-30T14:26:04;100662.63;;;0.14
28803;BMP280;15949;55.656;37.422;2024-01-30T14:31:10;100667.75;;;0.14
28803;BMP280;15949;55.656;37.422;2024-01-30T14:36:16;100677.13;;;0.20
28803;BMP280;15949;55.656;37.422;2024-01-30T14:41:21;100667.56;;;0.15
28803;BMP280;15949;55.656;37.422;2024-01-30T14:46:27;100673.47;;;0.16
28803;BMP280;15949;55.656;37.422;2024-01-30T14:51:33;100671.13;;;0.02
28803;BMP280;15949;55.656;37.422;2024-01-30T14:56:39;100678.13;;;0.07
28803;BMP280;15949;55.656;37.422;2024-01-30T15:01:45;100675.00;;;0.05
28803;BMP280;15949;55.656;37.422;2024-01-30T15:06:52;100677.94;;;0.08
28803;BMP280;15949;55.656;37.422;2024-01-30T15:11:58;100678.59;;;0.04
28803;BMP280;15949;55.656;37.422;2024-01-30T15:17:04;100685.03;;;0.06
28803;BMP280;15949;55.656;37.422;2024-01-30T15:22:10;100684.38;;;0.11
28803;BMP280;15949;55.656;37.422;2024-01-30T15:27:15;100686.72;;;0.13
28803;BMP280;15949;55.656;37.422;2024-01-30T15:32:21;100697.66;;;0.20
28803;BMP280;15949;55.656;37.422;2024-01-30T15:37:26;100707.00;;;0.14
28803;BMP280;15949;55.656;37.422;2024-01-30T15:42:33;100706.31;;;0.19
28803;BMP280;15949;55.656;37.422;2024-01-30T15:47:38;100704.75;;;0.06
28803;BMP280;15949;55.656;37.422;2024-01-30T15:52:44;100705.66;;;0.12
28803;BMP280;15949;55.656;37.422;2024-01-30T15:57:50;100712.00;;;-0.03
28803;BMP280;15949;55.656;37.422;2024-01-30T16:02:56;100712.91;;;-0.09
28803;BMP280;15949;55.656;37.422;2024-01-30T16:08:03;100707.69;;;-0.14
28803;BMP280;15949;55.656;37.422;2024-01-30T16:13:09;100708.22;;;-0.12
28803;BMP280;15949;55.656;37.422;2024-01-30T16:18:14;100721.50;;;-0.15
28803;BMP280;15949;55.656;37.422;2024-01-30T16:23:20;100720.59;;;-0.09
28803;BMP280;15949;55.656;37.422;2024-01-30T16:28:26;100725.72;;;-0.09
28803;BMP280;15949;55.656;37.422;2024-01-30T16:33:31;100724.28;;;-0.05
28803;BMP280;15949;55.656;37.422;2024-01-30T16:38:37;100724.38;;;0.00
28803;BMP280;15949;55.656;37.422;2024-01-30T16:43:43;100721.81;;;0.00
28803;BMP280;15949;55.656;37.422;2024-01-30T16:48:48;100711.00;;;-0.02
28803;BMP280;15949;55.656;37.422;2024-01-30T16:53:57;100728.59;;;-0.17
28803;BMP280;15949;55.656;37.422;2024-01-30T16:59:05;100724.84;;;-0.14
28803;BMP280;15949;55.656;37.422;2024-01-30T17:04:11;100716.69;;;-0.11
28803;BMP280;15949;55.656;37.422;2024-01-30T17:09:17;100716.00;;;-0.07
28803;BMP280;15949;55.656;37.422;2024-01-30T17:14:23;100723.06;;;-0.14
28803;BMP280;15949;55.656;37.422;2024-01-30T17:19:28;100729.72;;;-0.13
28803;BMP280;15949;55.656;37.422;2024-01-30T17:24:34;100727.75;;;-0.11
28803;BMP280;15949;55.656;37.422;2024-01-30T17:29:40;100715.03;;;-0.06
28803;BMP280;15949;55.656;37.422;2024-01-30T17:34:45;100723.03;;;-0.02
28803;BMP280;15949;55.656;37.422;2024-01-30T17:39:51;100727.16;;;-0.01
28803;BMP280;15949;55.656;37.422;2024-01-30T17:44:56;100727.38;;;-0.03
28803;BMP280;15949;55.656;37.422;2024-01-30T17:50:02;100718.56;;;-0.07
28803;BMP280;15949;55.656;37.422;2024-01-30T17:55:08;100715.47;;;-0.09
28803;BMP280;15949;55.656;37.422;2024-01-30T18:00:14;100716.50;;;-0.10
28803;BMP280;15949;55.656;37.422;2024-01-30T18:05:20;100726.75;;;-0.10
28803;BMP280;15949;55.656;37.422;2024-01-30T18:10:26;100715.81;;;-0.05
28803;BMP280;15949;55.656;37.422;2024-01-30T18:15:31;100728.72;;;-0.12
28803;BMP280;15949;55.656;37.422;2024-01-30T18:20:37;100726.94;;;-0.11
28803;BMP280;15949;55.656;37.422;2024-01-30T18:25:43;100713.78;;;-0.03
28803;BMP280;15949;55.656;37.422;2024-01-30T18:30:48;100718.38;;;-0.05
28803;BMP280;15949;55.656;37.422;2024-01-30T18:35:54;100720.59;;;-0.09
28803;BMP280;15949;55.656;37.422;2024-01-30T18:41:00;100712.56;;;-0.12
28803;BMP280;15949;55.656;37.422;2024-01-30T18:46:07;100714.34;;;-0.13
28803;BMP280;15949;55.656;37.422;2024-01-30T18:51:15;100719.06;;;-0.10
28803;BMP280;15949;55.656;37.422;2024-01-30T18:56:21;100712.38;;;-0.11
28803;BMP280;15949;55.656;37.422;2024-01-30T19:01:27;100720.25;;;-0.12
28803;BMP280;15949;55.656;37.422;2024-01-30T19:06:33;100717.47;;;-0.11
28803;BMP280;15949;55.656;37.422;2024-01-30T19:11:39;100699.88;;;-0.19
28803;BMP280;15949;55.656;37.422;2024-01-30T19:16:44;100701.88;;;-0.21
28803;BMP280;15949;55.656;37.422;2024-01-30T19:21:51;100699.50;;;-0.34
28803;BMP280;15949;55.656;37.422;2024-01-30T19:26:58;100705.50;;;-0.40
28803;BMP280;15949;55.656;37.422;2024-01-30T19:32:04;100714.66;;;-0.44
28803;BMP280;15949;55.656;37.422;2024-01-30T19:37:09;100712.88;;;-0.44
28803;BMP280;15949;55.656;37.422;2024-01-30T19:42:15;100717.78;;;-0.42
28803;BMP280;15949;55.656;37.422;2024-01-30T19:47:20;100720.34;;;-0.42
28803;BMP280;15949;55.656;37.422;2024-01-30T19:52:26;100713.84;;;-0.45
28803;BMP280;15949;55.656;37.422;2024-01-30T19:57:32;100705.41;;;-0.45
28803;BMP280;15949;55.656;37.422;2024-01-30T20:02:38;100714.31;;;-0.48
28803;BMP280;15949;55.656;37.422;2024-01-30T20:07:44;100705.41;;;-0.45
28803;BMP280;15949;55.656;37.422;2024-01-30T20:12:49;100707.53;;;-0.42
28803;BMP280;15949;55.656;37.422;2024-01-30T20:17:55;100709.72;;;-0.57
28803;BMP280;15949;55.656;37.422;2024-01-30T20:23:01;100697.13;;;-0.59
28803;BMP280;15949;55.656;37.422;2024-01-30T20:28:07;100702.72;;;-0.50
28803;BMP280;15949;55.656;37.422;2024-01-30T20:33:13;100694.94;;;-0.44
28803;BMP280;15949;55.656;37.422;2024-01-30T20:38:20;100699.63;;;-0.41
28803;BMP280;15949;55.656;37.422;2024-01-30T20:43:26;100702.84;;;-0.45
28803;BMP280;15949;55.656;37.422;2024-01-30T20:48:32;100696.50;;;-0.54
28803;BMP280;15949;55.656;37.422;2024-01-30T20:53:38;100703.25;;;-0.60
28803;BMP280;15949;55.656;37.422;2024-01-30T20:58:45;100689.56;;;-0.54
28803;BMP280;15949;55.656;37.422;2024-01-30T21:03:50;100699.16;;;-0.49
28803;BMP280;15949;55.656;37.422;2024-01-30T21:08:56;100698.16;;;-0.48
28803;BMP280;15949;55.656;37.422;2024-01-30T21:14:02;100688.03;;;-0.55
28803;BMP280;15949;55.656;37.422;2024-01-30T21:19:09;100692.13;;;-0.54
28803;BMP280;15949;55.656;37.422;2024-01-30T21:24:15;100689.22;;;-0.57
28803;BMP280;15949;55.656;37.422;2024-01-30T21:29:21;100688.22;;;-0.56
28803;BMP280;15949;55.656;37.422;2024-01-30T21:34:26;100696.91;;;-0.57
28803;BMP280;15949;55.656;37.422;2024-01-30T21:39:32;100691.78;;;-0.57
28803;BMP280;15949;55.656;37.422;2024-01-30T21:44:39;100703.00;;;-0.58
28803;BMP280;15949;55.656;37.422;2024-01-30T21:49:45;100678.91;;;-0.51
28803;BMP280;15949;55.656;37.422;2024-01-30T21:54:50;100675.09;;;-0.48
28803;BMP280;15949;55.656;37.422;2024-01-30T21:59:56;100661.31;;;-0.47
28803;BMP280;15949;55.656;37.422;2024-01-30T22:05:03;100668.97;;;-0.59
28803;BMP280;15949;55.656;37.422;2024-01-30T22:10:09;100666.63;;;-0.60
28803;BMP280;15949;55.656;37.422;2024-01-30T22:15:15;100653.13;;;-0.67
28803;BMP280;15949;55.656;37.422;2024-01-30T22:20:21;100649.16;;;-0.63
28803;BMP280;15949;55.656;37.422;2024-01-30T22:25:27;100656.84;;;-0.63
28803;BMP280;15949;55.656;37.422;2024-01-30T22:30:32;100640.25;;;-0.61
28803;BMP280;15949;55.656;37.422;2024-01-30T22:35:38;100637.88;;;-0.62
28803;BMP280;15949;55.656;37.422;2024-01-30T22:40:44;100626.88;;;-0.63
28803;BMP280;15949;55.656;37.422;2024-01-30T22:45:50;100628.44;;;-0.62
28803;BMP280;15949;55.656;37.422;2024-01-30T22:50:56;100616.88;;;-0.64
28803;BMP280;15949;55.656;37.422;2024-01-30T22:56:02;100623.16;;;-0.78
28803;BMP280;15949;55.656;37.422;2024-01-30T23:01:08;100613.69;;;-0.90
28803;BMP280;15949;55.656;37.422;2024-01-30T23:06:14;100609.16;;;-0.88
28803;BMP280;15949;55.656;37.422;2024-01-30T23:11:19;100616.38;;;-0.84
28803;BMP280;15949;55.656;37.422;2024-01-30T23:16:25;100602.81;;;-0.85
28803;BMP280;15949;55.656;37.422;2024-01-30T23:21:31;100606.78;;;-0.89
28803;BMP280;15949;55.656;37.422;2024-01-30T23:26:40;100607.59;;;-0.89
28803;BMP280;15949;55.656;37.422;2024-01-30T23:31:46;100613.53;;;-1.06
28803;BMP280;15949;55.656;37.422;2024-01-30T23:36:52;100621.66;;;-1.09
28803;BMP280;15949;55.656;37.422;2024-01-30T23:41:58;100630.53;;;-1.12
28803;BMP280;15949;55.656;37.422;2024-01-30T23:47:03;100629.38;;;-1.16
28803;BMP280;15949;55.656;37.422;2024-01-30T23:52:09;100624.06;;;-1.14
28803;BMP280;15949;55.656;37.422;2024-01-30T23:57:15;100622.16;;;-1.19
